Time;durP1;ratioP1;P1;durP2;ratioP2;P2;SDS_P1;SDS_P2;PMS_P1;PMS_P2;Temp;Humidity;BMP_temperature;BMP_pressure;BME280_temperature;BME280_humidity;BME280_pressure;Samples;Min_cycle;Max_cycle;Signal;HPM_P1;HPM_P2
2023/03/14 00:02:43;;;;;;;0.50;0.30;;;18.40;53.00;;;;;;6296444;28;20024;-70
2023/03/14 00:05:44;;;;;;;0.25;0.20;;;18.40;53.10;;;;;;6277737;28;20059;-70
2023/03/14 00:08:45;;;;;;;0.22;0.22;;;18.40;53.10;;;;;;6278366;28;20016;-69
2023/03/14 00:11:46;;;;;;;0.22;0.22;;;18.40;53.00;;;;;;6295922;28;20031;-70
2023/03/14 00:14:47;;;;;;;0.45;0.30;;;18.40;53.00;;;;;;6278381;28;20032;-70
2023/03/14 00:17:47;;;;;;;0.63;0.25;;;18.40;53.00;;;;;;6296039;28;20405;-70
2023/03/14 00:20:48;;;;;;;0.30;0.30;;;18.40;53.10;;;;;;6278194;28;20090;-70
2023/03/14 00:23:48;;;;;;;0.40;0.30;;;18.40;53.00;;;;;;6296093;28;20594;-70
2023/03/14 00:26:49;;;;;;;0.25;0.20;;;18.40;53.10;;;;;;6295604;28;20517;-70
2023/03/14 00:29:50;;;;;;;0.30;0.30;;;18.40;53.10;;;;;;6295545;28;20020;-70
2023/03/14 00:32:51;;;;;;;0.30;0.30;;;18.40;53.10;;;;;;6295598;28;20073;-70
2023/03/14 00:36:06;;;;;;;0.30;0.30;;;18.40;53.10;;;;;;6295862;28;20420;-72
2023/03/14 00:39:06;;;;;;;3.10;0.30;;;18.40;53.10;;;;;;6295192;28;20033;-70
2023/03/14 00:42:07;;;;;;;0.30;0.30;;;18.40;53.10;;;;;;6295378;28;20074;-70
2023/03/14 00:45:09;;;;;;;0.40;0.40;;;18.40;53.10;;;;;;6288405;28;20094;-70
2023/03/14 00:48:10;;;;;;;0.28;0.20;;;18.40;53.10;;;;;;6293990;28;20052;-70
2023/03/14 00:51:13;;;;;;;0.17;0.17;;;18.40;53.10;;;;;;6277045;28;20389;-70
2023/03/14 00:54:14;;;;;;;0.50;0.20;;;18.40;53.10;;;;;;6277489;28;20024;-70
2023/03/14 00:57:15;;;;;;;0.28;0.25;;;18.40;53.10;;;;;;6295006;28;20029;-70
2023/03/14 01:00:16;;;;;;;0.43;0.30;;;18.40;53.10;;;;;;6275587;28;20025;-70
2023/03/14 01:03:16;;;;;;;0.20;0.20;;;18.40;53.10;;;;;;6294972;28;20031;-70
2023/03/14 01:06:20;;;;;;;0.32;0.20;;;18.40;53.10;;;;;;6277190;28;20035;-70
2023/03/14 01:09:20;;;;;;;0.60;0.25;;;18.40;53.10;;;;;;6295147;28;20033;-70
2023/03/14 01:12:22;;;;;;;0.20;0.20;;;18.40;53.10;;;;;;6294985;28;20017;-70
2023/03/14 01:15:23;;;;;;;0.35;0.35;;;18.40;53.10;;;;;;6294517;28;20017;-70
2023/03/14 01:18:24;;;;;;;0.43;0.43;;;18.40;53.20;;;;;;6276240;28;20102;-70
2023/03/14 01:21:28;;;;;;;0.20;0.20;;;18.40;53.10;;;;;;6276575;28;20028;-70
2023/03/14 01:24:28;;;;;;;0.30;0.22;;;18.40;53.10;;;;;;6276751;28;20028;-70
2023/03/14 01:27:29;;;;;;;0.30;0.30;;;18.40;53.10;;;;;;6294396;28;20043;-70
2023/03/14 01:30:30;;;;;;;0.22;0.22;;;18.40;53.10;;;;;;6294765;28;20020;-70
2023/03/14 01:33:30;;;;;;;0.40;0.35;;;18.40;53.10;;;;;;6294386;28;20496;-70
2023/03/14 01:36:31;;;;;;;0.28;0.20;;;18.40;53.10;;;;;;6294640;28;20393;-70
2023/03/14 01:39:32;;;;;;;0.35;0.30;;;18.40;53.10;;;;;;6294541;28;20053;-70
2023/03/14 01:42:32;;;;;;;0.40;0.30;;;18.40;53.20;;;;;;6294369;28;20032;-70
2023/03/14 01:46:14;;;;;;;0.40;0.30;;;18.40;53.20;;;;;;6294400;28;20063;-70
2023/03/14 01:49:34;;;;;;;0.25;0.20;;;18.40;53.20;;;;;;6241432;28;20481;-70
2023/03/14 01:52:42;;;;;;;0.30;0.20;;;18.40;53.20;;;;;;6245006;28;20663;-70
2023/03/14 01:55:43;;;;;;;0.30;0.30;;;18.40;53.20;;;;;;6294025;28;20441;-70
2023/03/14 01:58:48;;;;;;;0.30;0.30;;;18.40;53.20;;;;;;6274032;28;20028;-70
2023/03/14 02:01:50;;;;;;;;;;;18.40;53.90;;;;;;6275370;28;20028;-70
2023/03/14 02:04:52;;;;;;;0.15;0.15;;;18.40;53.20;;;;;;6294279;28;19908;-70
2023/03/14 02:07:55;;;;;;;0.10;0.10;;;18.40;53.20;;;;;;6293981;28;20035;-70
2023/03/14 02:10:56;;;;;;;1.02;0.40;;;18.40;53.20;;;;;;6275514;28;20025;-70
2023/03/14 02:13:58;;;;;;;0.65;0.30;;;18.40;53.20;;;;;;6275645;28;20063;-70
2023/03/14 02:17:01;;;;;;;0.20;0.20;;;18.40;53.20;;;;;;6294009;28;20016;-70
2023/03/14 02:20:46;;;;;;;0.20;0.20;;;18.40;53.20;;;;;;6293936;28;20024;-70
2023/03/14 02:24:08;;;;;;;0.30;0.30;;;18.40;53.20;;;;;;6240920;28;20589;-70
2023/03/14 02:27:11;;;;;;;0.30;0.25;;;18.40;53.20;;;;;;6268430;28;20079;-70
2023/03/14 02:30:16;;;;;;;0.20;0.20;;;18.40;53.20;;;;;;6323902;28;20037;-70
2023/03/14 02:33:20;;;;;;;0.88;0.35;;;18.40;53.90;;;;;;6310079;28;20115;-70
2023/03/14 02:36:21;;;;;;;0.30;0.30;;;18.40;53.30;;;;;;6298750;28;20064;-70
2023/03/14 02:39:32;;;;;;;0.10;0.10;;;18.40;53.20;;;;;;6298332;28;20128;-70
2023/03/14 02:42:32;;;;;;;0.30;0.30;;;18.40;53.20;;;;;;6280412;28;20025;-70
2023/03/14 02:45:40;;;;;;;0.77;0.40;;;18.40;53.20;;;;;;6298288;28;20082;-70
2023/03/14 02:48:48;;;;;;;0.30;0.20;;;18.40;53.20;;;;;;6280389;28;20547;-70
2023/03/14 02:51:49;;;;;;;0.20;0.20;;;18.40;53.20;;;;;;6271806;28;20024;-70
2023/03/14 02:54:50;;;;;;;0.30;0.20;;;18.40;53.20;;;;;;6273174;28;20118;-71
2023/03/14 02:57:50;;;;;;;0.65;0.40;;;18.40;53.20;;;;;;6273646;28;20025;-70
2023/03/14 03:00:51;;;;;;;1.13;0.32;;;18.40;53.20;;;;;;6271713;28;20044;-70
2023/03/14 03:03:52;;;;;;;0.17;0.17;;;18.40;53.90;;;;;;6273149;28;20441;-70
2023/03/14 03:06:52;;;;;;;0.20;0.20;;;18.40;53.20;;;;;;6272852;28;20092;-70
2023/03/14 03:09:53;;;;;;;0.20;0.20;;;18.40;53.20;;;;;;6273076;28;20474;-70
2023/03/14 03:12:54;;;;;;;0.30;0.30;;;18.40;53.20;;;;;;6271359;28;20051;-70
2023/03/14 03:15:55;;;;;;;0.25;0.20;;;18.40;53.20;;;;;;6273216;28;20390;-70
2023/03/14 03:18:55;;;;;;;0.30;0.20;;;18.40;53.30;;;;;;6272882;28;20056;-70
2023/03/14 03:21:57;;;;;;;0.20;0.20;;;18.40;53.30;;;;;;6273085;28;20025;-70
2023/03/14 03:24:58;;;;;;;0.20;0.20;;;18.40;53.20;;;;;;6272669;28;20036;-70
2023/03/14 03:27:58;;;;;;;0.20;0.20;;;18.40;53.20;;;;;;6272554;28;20017;-70
2023/03/14 03:31:08;;;;;;;0.20;0.20;;;18.40;53.30;;;;;;6271480;28;20045;-70
2023/03/14 03:34:09;;;;;;;0.20;0.10;;;18.40;53.30;;;;;;6272731;28;20021;-70
2023/03/14 03:37:09;;;;;;;0.32;0.13;;;18.40;53.20;;;;;;6279045;28;20111;-71
2023/03/14 03:40:11;;;;;;;0.20;0.20;;;18.40;53.30;;;;;;6296186;28;20455;-70
2023/03/14 03:43:12;;;;;;;0.13;0.13;;;18.40;53.30;;;;;;6279167;28;20063;-70
2023/03/14 03:46:12;;;;;;;0.38;0.30;;;18.40;53.20;;;;;;6296811;28;20767;-70
2023/03/14 03:49:13;;;;;;;0.20;0.20;;;18.40;53.30;;;;;;6296813;28;20032;-71
2023/03/14 03:52:14;;;;;;;0.20;0.20;;;18.40;53.30;;;;;;6296786;28;20081;-71
2023/03/14 03:55:15;;;;;;;0.40;0.20;;;18.40;53.30;;;;;;6296822;28;20070;-70
2023/03/14 03:58:16;;;;;;;0.22;0.22;;;18.40;53.30;;;;;;6296680;28;20033;-70
2023/03/14 04:01:16;;;;;;;0.20;0.20;;;18.40;53.30;;;;;;6278466;28;20054;-71
2023/03/14 04:04:17;;;;;;;3.10;0.30;;;18.40;53.30;;;;;;6296443;28;20481;-70
2023/03/14 04:07:18;;;;;;;0.28;0.20;;;18.40;53.30;;;;;;6278505;28;20120;-70
2023/03/14 04:10:19;;;;;;;0.22;0.22;;;18.40;53.30;;;;;;6296443;28;20359;-71
2023/03/14 04:13:19;;;;;;;0.20;0.20;;;18.40;53.30;;;;;;6296256;28;20100;-71
2023/03/14 04:16:23;;;;;;;0.20;0.20;;;18.40;53.20;;;;;;6278169;28;20031;-71
2023/03/14 04:19:24;;;;;;;0.20;0.20;;;18.40;53.30;;;;;;6295954;28;20031;-71
2023/03/14 04:22:24;;;;;;;1.65;0.20;;;18.40;53.30;;;;;;6296213;28;20370;-71
2023/03/14 04:25:25;;;;;;;0.20;0.20;;;18.40;53.30;;;;;;6273312;28;20520;-71
2023/03/14 04:28:26;;;;;;;0.90;0.30;;;18.40;53.30;;;;;;6295372;28;20033;-70
2023/03/14 04:31:27;;;;;;;0.10;0.10;;;18.40;53.60;;;;;;6296062;28;20092;-70
2023/03/14 04:34:27;;;;;;;0.32;0.28;;;18.40;53.30;;;;;;6295578;28;20023;-70
2023/03/14 04:37:28;;;;;;;0.30;0.25;;;18.40;53.30;;;;;;6295824;28;20386;-71
2023/03/14 04:40:29;;;;;;;1.02;0.25;;;18.40;53.30;;;;;;6295535;28;20053;-70
2023/03/14 04:43:29;;;;;;;0.10;0.10;;;18.40;53.30;;;;;;6295402;28;20669;-70
2023/03/14 04:46:30;;;;;;;0.30;0.20;;;18.40;53.30;;;;;;6275250;28;20035;-71
2023/03/14 04:49:31;;;;;;;0.10;0.10;;;18.40;53.30;;;;;;6277770;28;20024;-70
2023/03/14 04:52:31;;;;;;;0.10;0.10;;;18.40;53.30;;;;;;6295190;28;20017;-70
2023/03/14 04:55:33;;;;;;;0.63;0.38;;;18.40;53.30;;;;;;6277675;28;20070;-70
2023/03/14 04:58:33;;;;;;;0.20;0.20;;;18.40;53.30;;;;;;6293925;28;20035;-70
2023/03/14 05:01:35;;;;;;;0.15;0.15;;;18.40;53.30;;;;;;6295110;28;20032;-70
2023/03/14 05:04:36;;;;;;;0.40;0.30;;;18.40;53.30;;;;;;6277068;28;20024;-70
2023/03/14 05:07:36;;;;;;;0.20;0.13;;;18.40;53.30;;;;;;6295057;28;20032;-70
2023/03/14 05:10:37;;;;;;;0.20;0.20;;;18.40;53.30;;;;;;6277211;28;20052;-70
2023/03/14 05:13:38;;;;;;;0.20;0.20;;;18.40;53.30;;;;;;6295278;28;20481;-70
2023/03/14 05:16:39;;;;;;;0.40;0.20;;;18.40;53.30;;;;;;6294689;28;20537;-70
2023/03/14 05:19:41;;;;;;;0.28;0.20;;;18.40;53.30;;;;;;6294616;28;20111;-70
2023/03/14 05:22:41;;;;;;;0.20;0.20;;;18.40;53.20;;;;;;6294648;28;20032;-70
2023/03/14 05:25:44;;;;;;;0.20;0.20;;;18.40;53.30;;;;;;6276665;28;20052;-70
2023/03/14 05:28:45;;;;;;;0.20;0.20;;;18.40;53.30;;;;;;6289141;28;20108;-70
2023/03/14 05:31:45;;;;;;;0.20;0.20;;;18.40;53.30;;;;;;6292134;28;20534;-71
2023/03/14 05:34:46;;;;;;;0.20;0.20;;;18.40;53.30;;;;;;6289053;28;20064;-70
2023/03/14 05:37:46;;;;;;;0.15;0.13;;;18.40;53.30;;;;;;6289897;28;20078;-69
2023/03/14 05:40:47;;;;;;;0.30;0.30;;;18.40;53.20;;;;;;6282889;28;20396;-71
2023/03/14 05:43:48;;;;;;;0.60;0.20;;;18.40;53.30;;;;;;6292073;28;20025;-70
2023/03/14 05:46:48;;;;;;;0.30;0.30;;;18.40;53.30;;;;;;6281356;28;20039;-70
2023/03/14 05:49:49;;;;;;;0.20;0.20;;;18.40;53.20;;;;;;6293078;28;20369;-70
2023/03/14 05:52:50;;;;;;;0.40;0.30;;;18.40;53.30;;;;;;6279174;28;20052;-70
2023/03/14 05:55:55;;;;;;;0.20;0.20;;;18.50;53.30;;;;;;6280866;28;20388;-70
2023/03/14 05:58:55;;;;;;;0.40;0.30;;;18.50;53.30;;;;;;6285252;28;20024;-70
2023/03/14 06:01:56;;;;;;;0.20;0.20;;;18.50;53.30;;;;;;6301226;28;20040;-71
2023/03/14 06:04:57;;;;;;;0.20;0.20;;;18.50;53.30;;;;;;6275027;28;20031;-71
2023/03/14 06:07:57;;;;;;;0.45;0.30;;;18.50;53.30;;;;;;6304651;28;20107;-70
2023/03/14 06:10:58;;;;;;;0.50;0.20;;;18.50;53.30;;;;;;6317781;28;20541;-71
2023/03/14 06:13:59;;;;;;;0.52;0.20;;;18.40;53.30;;;;;;6317568;28;20095;-71
2023/03/14 06:16:59;;;;;;;0.35;0.28;;;18.50;53.30;;;;;;6317919;28;20415;-71
2023/03/14 06:20:00;;;;;;;0.20;0.20;;;18.40;53.30;;;;;;6318159;28;20078;-71
2023/03/14 06:23:01;;;;;;;0.40;0.30;;;18.40;53.30;;;;;;6307118;28;20031;-70
2023/03/14 06:26:02;;;;;;;0.30;0.20;;;18.40;53.30;;;;;;6287434;28;20025;-70
2023/03/14 06:29:03;;;;;;;0.20;0.20;;;18.40;53.30;;;;;;6266334;28;20036;-70
2023/03/14 06:32:05;;;;;;;0.63;0.30;;;18.40;53.30;;;;;;6267710;28;20409;-70
2023/03/14 06:35:06;;;;;;;0.30;0.30;;;18.50;53.30;;;;;;6281162;28;20017;-70
2023/03/14 06:38:06;;;;;;;0.30;0.30;;;18.50;53.40;;;;;;6281020;28;20393;-71
2023/03/14 06:41:08;;;;;;;0.25;0.20;;;18.50;53.30;;;;;;6317104;28;20052;-71
2023/03/14 06:44:08;;;;;;;0.35;0.20;;;18.50;53.40;;;;;;6298989;28;20020;-70
2023/03/14 06:47:09;;;;;;;0.50;0.30;;;18.50;53.40;;;;;;6303757;28;20481;-71
2023/03/14 06:50:10;;;;;;;0.30;0.20;;;18.50;53.30;;;;;;6298799;28;20556;-70
2023/03/14 06:53:11;;;;;;;0.25;0.20;;;18.50;53.30;;;;;;6307987;28;20009;-70
2023/03/14 06:56:12;;;;;;;0.25;0.25;;;18.50;53.40;;;;;;6267345;28;20029;-70
2023/03/14 06:59:12;;;;;;;0.25;0.25;;;18.50;53.30;;;;;;6280068;28;20029;-70
2023/03/14 07:02:13;;;;;;;0.30;0.20;;;18.50;53.40;;;;;;6295060;28;20031;-70
2023/03/14 07:05:14;;;;;;;0.20;0.20;;;18.50;53.30;;;;;;6312552;28;20595;-70
2023/03/14 07:08:15;;;;;;;0.25;0.22;;;18.50;53.30;;;;;;6298195;28;20036;-70
2023/03/14 07:11:16;;;;;;;0.22;0.20;;;18.50;53.30;;;;;;6319662;28;20035;-70
2023/03/14 07:14:17;;;;;;;1.45;0.35;;;18.50;53.40;;;;;;6319506;28;20032;-71
2023/03/14 07:17:18;;;;;;;0.68;0.40;;;18.50;53.40;;;;;;6323669;28;20028;-75
2023/03/14 07:20:19;;;;;;;1.88;0.60;;;18.50;53.30;;;;;;6299417;28;20032;-71
2023/03/14 07:23:20;;;;;;;1.77;0.60;;;18.50;53.40;;;;;;6297904;28;20397;-71
2023/03/14 07:26:20;;;;;;;1.50;0.70;;;18.50;53.40;;;;;;6279710;28;20105;-71
2023/03/14 07:29:21;;;;;;;2.35;0.60;;;18.50;53.40;;;;;;6288350;28;20462;-72
2023/03/14 07:32:22;;;;;;;1.83;0.75;;;18.50;53.40;;;;;;6281354;28;20025;-72
2023/03/14 07:35:23;;;;;;;2.20;0.73;;;18.50;53.40;;;;;;6288731;28;20048;-71
2023/03/14 07:38:23;;;;;;;1.80;0.85;;;18.50;53.40;;;;;;6274314;28;20032;-71
2023/03/14 07:41:24;;;;;;;1.08;0.60;;;18.50;53.40;;;;;;6305174;28;20028;-72
2023/03/14 07:44:25;;;;;;;3.35;0.75;;;18.50;53.40;;;;;;6295191;28;20024;-71
2023/03/14 07:47:26;;;;;;;2.10;0.80;;;18.50;53.40;;;;;;6297731;28;20045;-72
2023/03/14 07:50:26;;;;;;;1.40;0.80;;;18.50;53.40;;;;;;6287319;28;20017;-71
2023/03/14 07:53:27;;;;;;;2.03;0.75;;;18.50;53.40;;;;;;6297412;28;20013;-72
2023/03/14 07:56:28;;;;;;;1.90;0.85;;;18.50;53.40;;;;;;6296871;28;20027;-72
2023/03/14 07:59:28;;;;;;;2.13;1.05;;;18.50;53.40;;;;;;6288174;28;20107;-72
2023/03/14 08:02:29;;;;;;;1.92;0.90;;;18.50;53.40;;;;;;6297167;28;20390;-72
2023/03/14 08:05:30;;;;;;;2.63;1.00;;;18.50;53.40;;;;;;6297159;28;20066;-72
2023/03/14 08:08:30;;;;;;;2.25;0.80;;;18.50;53.40;;;;;;6296941;28;20099;-72
2023/03/14 08:11:31;;;;;;;2.30;1.10;;;18.50;53.40;;;;;;6301598;28;20032;-72
2023/03/14 08:14:32;;;;;;;1.33;0.80;;;18.50;53.40;;;;;;6321649;28;20453;-72
2023/03/14 08:17:33;;;;;;;2.92;1.20;;;18.50;53.40;;;;;;6321786;28;20028;-70
2023/03/14 08:20:33;;;;;;;2.03;1.10;;;18.50;53.40;;;;;;6321154;28;20028;-67
2023/03/14 08:23:34;;;;;;;1.58;1.02;;;18.50;53.40;;;;;;6321368;28;20032;-67
2023/03/14 08:26:35;;;;;;;1.80;1.05;;;18.50;53.40;;;;;;6318499;28;20136;-72
2023/03/14 08:29:35;;;;;;;2.67;1.27;;;18.50;53.40;;;;;;6321647;28;20032;-73
2023/03/14 08:32:36;;;;;;;2.10;1.00;;;18.50;53.40;;;;;;6296128;28;20378;-72
2023/03/14 08:35:38;;;;;;;2.70;1.48;;;18.50;53.50;;;;;;6292519;28;20031;-72
2023/03/14 08:38:42;;;;;;;2.42;1.38;;;18.50;53.40;;;;;;6295905;28;20060;-72
2023/03/14 08:41:44;;;;;;;1.77;1.02;;;18.50;53.40;;;;;;6310781;28;20032;-72
2023/03/14 08:44:45;;;;;;;2.97;1.50;;;18.50;53.40;;;;;;6298391;28;20028;-72
2023/03/14 08:47:46;;;;;;;2.92;1.42;;;18.50;53.40;;;;;;6317476;28;20024;-72
2023/03/14 08:50:47;;;;;;;2.15;1.35;;;18.50;53.40;;;;;;6295604;28;20017;-72
2023/03/14 08:53:48;;;;;;;2.72;1.48;;;18.50;53.40;;;;;;6295400;28;20025;-72
2023/03/14 08:56:49;;;;;;;1.98;1.20;;;18.50;53.40;;;;;;6309282;28;20094;-73
2023/03/14 08:59:49;;;;;;;1.90;1.10;;;18.50;53.40;;;;;;6320880;28;20696;-73
2023/03/14 09:02:50;;;;;;;3.65;1.40;;;18.50;53.40;;;;;;6318253;28;20024;-72
2023/03/14 09:05:52;;;;;;;2.33;1.13;;;18.50;53.40;;;;;;6316188;28;20532;-73
2023/03/14 09:08:52;;;;;;;2.28;1.15;;;18.50;53.50;;;;;;6320975;28;20028;-73
2023/03/14 09:11:53;;;;;;;1.88;1.00;;;18.50;53.40;;;;;;6320362;28;20028;-73
2023/03/14 09:14:54;;;;;;;2.40;1.10;;;18.50;53.40;;;;;;6320602;28;20020;-73
2023/03/14 09:17:55;;;;;;;2.63;1.23;;;18.50;53.50;;;;;;6318686;28;20028;-73
2023/03/14 09:20:56;;;;;;;2.28;1.20;;;18.50;53.40;;;;;;6318036;28;20384;-73
2023/03/14 09:23:56;;;;;;;1.73;1.10;;;18.50;53.50;;;;;;6302369;28;20032;-72
2023/03/14 09:26:57;;;;;;;2.30;1.25;;;18.50;53.40;;;;;;6282906;28;20031;-72
2023/03/14 09:29:58;;;;;;;2.63;1.55;;;18.50;53.40;;;;;;6270187;28;20021;-73
2023/03/14 09:32:58;;;;;;;1.92;1.13;;;18.50;53.40;;;;;;6313700;28;20085;-73
2023/03/14 09:35:59;;;;;;;2.55;1.20;;;18.50;53.40;;;;;;6285872;28;20017;-72
2023/03/14 09:39:00;;;;;;;2.22;1.13;;;18.50;53.50;;;;;;6294402;28;20045;-72
2023/03/14 09:42:06;;;;;;;1.55;1.00;;;18.50;53.40;;;;;;6285652;28;20028;-72
2023/03/14 09:45:13;;;;;;;2.25;1.27;;;18.50;53.40;;;;;;6318312;28;20031;-72
2023/03/14 09:48:19;;;;;;;1.63;1.00;;;18.50;53.40;;;;;;6301327;28;20085;-72
2023/03/14 09:51:23;;;;;;;2.55;1.27;;;18.50;53.40;;;;;;6295097;28;20017;-71
2023/03/14 09:54:45;;;;;;;2.20;1.27;;;18.50;53.50;;;;;;6320944;28;20058;-74
2023/03/14 09:57:48;;;;;;;1.70;1.13;;;18.50;53.50;;;;;;6307234;28;20105;-69
2023/03/14 10:00:57;;;;;;;1.67;1.02;;;18.50;53.40;;;;;;6319626;28;20024;-73
2023/03/14 10:04:15;;;;;;;2.85;1.35;;;18.50;53.50;;;;;;6302173;28;20089;-69
2023/03/14 10:07:21;;;;;;;1.85;1.08;;;18.50;53.50;;;;;;6310467;28;20685;-74
2023/03/14 10:10:26;;;;;;;2.60;1.10;;;18.50;53.40;;;;;;6294210;28;20021;-73
2023/03/14 10:13:29;;;;;;;1.73;0.90;;;18.50;53.50;;;;;;6303424;28;20017;-71
2023/03/14 10:16:35;;;;;;;3.05;1.23;;;18.50;53.40;;;;;;6294376;28;20065;-73
2023/03/14 10:19:37;;;;;;;1.60;1.10;;;18.50;53.50;;;;;;6277665;28;20493;-72
2023/03/14 10:22:38;;;;;;;3.47;1.55;;;18.50;53.40;;;;;;6312708;28;20100;-72
2023/03/14 10:26:18;;;;;;;1.50;1.08;;;18.50;53.40;;;;;;6302002;28;20016;-72
2023/03/14 10:29:21;;;;;;;2.25;1.27;;;18.50;53.40;;;;;;6299997;28;20556;-72
2023/03/14 10:32:31;;;;;;;1.55;1.00;;;18.50;53.40;;;;;;6297408;28;20724;-72
2023/03/14 10:35:34;;;;;;;1.52;1.08;;;18.50;53.50;;;;;;6272449;28;20394;-72
2023/03/14 10:38:36;;;;;;;2.22;1.23;;;18.50;53.50;;;;;;6294697;28;20051;-72
2023/03/14 10:41:37;;;;;;;1.42;0.93;;;18.50;53.40;;;;;;6319623;28;20023;-73
2023/03/14 10:44:38;;;;;;;1.85;1.20;;;18.50;53.50;;;;;;6289881;28;20529;-73
2023/03/14 10:47:49;;;;;;;1.60;1.00;;;18.50;53.50;;;;;;6297444;28;20040;-73
2023/03/14 10:50:54;;;;;;;1.75;1.10;;;18.50;53.50;;;;;;6298889;28;20031;-73
2023/03/14 10:54:03;;;;;;;3.45;1.55;;;18.50;53.50;;;;;;6298341;28;20027;-72
2023/03/14 10:57:06;;;;;;;3.38;1.20;;;18.50;53.50;;;;;;6299305;28;20335;-72
2023/03/14 11:00:19;;;;;;;1.95;1.13;;;18.50;53.50;;;;;;6320794;28;20024;-71
2023/03/14 11:03:20;;;;;;;1.38;0.77;;;18.50;53.50;;;;;;6316921;28;20085;-72
2023/03/14 11:06:36;;;;;;;1.52;1.00;;;18.50;54.10;;;;;;6298372;28;20028;-72
2023/03/14 11:09:42;;;;;;;;;;;18.50;53.40;;;;;;6315419;28;20052;-72
2023/03/14 11:12:55;;;;;;;1.77;1.17;;;18.50;53.40;;;;;;6305880;28;20357;-71
2023/03/14 11:16:08;;;;;;;1.23;0.80;;;18.50;53.50;;;;;;6305214;28;20020;-73
2023/03/14 11:19:37;;;;;;;2.35;1.05;;;18.50;53.50;;;;;;6322981;28;20473;-72
2023/03/14 11:22:50;;;;;;;1.23;0.80;;;18.50;53.50;;;;;;6301572;28;20092;-74
2023/03/14 11:26:09;;;;;;;1.40;1.00;;;18.50;53.50;;;;;;6322644;28;20469;-72
2023/03/14 11:29:31;;;;;;;1.08;0.73;;;18.50;53.50;;;;;;6304614;28;20397;-73
2023/03/14 11:32:50;;;;;;;2.15;1.00;;;18.50;53.50;;;;;;6321538;28;20027;-72
2023/03/14 11:36:28;;;;;;;1.50;1.13;;;18.50;53.50;;;;;;6285765;28;20027;-72
2023/03/14 11:43:36;;;;;;;1.70;0.90;;;18.50;53.40;;;;;;6290404;28;20139;-72
2023/03/14 11:47:06;;;;;;;1.67;0.82;;;18.60;53.60;;;;;;6302822;28;20067;-75
2023/03/14 11:50:18;;;;;;;1.38;0.70;;;18.50;53.50;;;;;;6295525;28;20500;-72
2023/03/14 11:53:29;;;;;;;1.35;0.80;;;18.60;53.60;;;;;;6279070;28;20043;-73
2023/03/14 11:56:44;;;;;;;1.10;0.80;;;18.60;53.60;;;;;;6304245;28;20025;-72
2023/03/14 12:00:12;;;;;;;2.33;1.00;;;18.60;53.60;;;;;;6321462;28;20027;-72
2023/03/14 12:03:38;;;;;;;1.80;0.88;;;18.50;53.50;;;;;;6322256;28;20426;-72
2023/03/14 12:07:19;;;;;;;0.77;0.63;;;18.50;53.60;;;;;;6303945;28;20026;-72
2023/03/14 12:10:19;;;;;;;1.95;1.05;;;18.60;53.60;;;;;;6303740;28;20028;-72
2023/03/14 12:13:21;;;;;;;1.52;0.95;;;18.60;53.50;;;;;;6303614;28;20081;-72
2023/03/14 12:16:34;;;;;;;1.05;0.68;;;18.60;53.40;;;;;;6319193;28;20069;-72
2023/03/14 12:19:40;;;;;;;2.03;1.10;;;18.70;53.30;;;;;;6283063;28;20135;-72
2023/03/14 12:22:56;;;;;;;3.80;0.98;;;18.70;53.30;;;;;;6320035;28;20024;-72
2023/03/14 12:26:12;;;;;;;1.15;0.70;;;18.70;53.30;;;;;;6298867;28;20060;-73
2023/03/14 12:29:16;;;;;;;1.00;0.70;;;18.80;53.30;;;;;;6286978;28;20033;-71
2023/03/14 12:32:26;;;;;;;1.48;0.90;;;18.70;53.20;;;;;;6295694;28;20020;-72
2023/03/14 12:35:38;;;;;;;1.33;0.70;;;18.70;53.20;;;;;;6289228;28;20021;-72
2023/03/14 12:58:43;;;;;;;3.05;0.98;;;18.70;53.30;;;;;;6200204;28;20041;-72
2023/03/14 13:01:54;;;;;;;2.80;1.08;;;18.70;53.40;;;;;;6303488;28;20059;-72
2023/03/14 13:05:12;;;;;;;2.58;0.90;;;18.70;53.50;;;;;;6282708;28;20032;-72
2023/03/14 13:08:12;;;;;;;2.83;0.85;;;18.70;53.50;;;;;;6301511;28;20030;-72
2023/03/14 13:11:19;;;;;;;0.95;0.70;;;18.60;53.40;;;;;;6283329;28;20025;-72
2023/03/14 13:14:20;;;;;;;1.02;0.70;;;18.60;53.40;;;;;;6305617;28;20458;-72
2023/03/14 13:17:31;;;;;;;0.60;0.60;;;18.60;53.50;;;;;;6319167;28;20024;-72
2023/03/14 13:20:36;;;;;;;0.95;0.73;;;18.70;53.60;;;;;;6294806;28;20099;-72
2023/03/14 13:23:38;;;;;;;1.38;0.82;;;18.70;53.60;;;;;;6276501;28;20029;-72
2023/03/14 13:26:43;;;;;;;1.50;0.82;;;18.60;53.50;;;;;;6285242;28;20035;-71
2023/03/14 13:29:44;;;;;;;1.70;0.73;;;18.60;53.50;;;;;;6286713;28;20021;-72
2023/03/14 13:32:47;;;;;;;1.20;0.80;;;18.60;53.50;;;;;;6315206;28;20621;-72
2023/03/14 13:36:00;;;;;;;1.90;0.80;;;18.70;53.60;;;;;;6298981;28;20029;-71
2023/03/14 13:39:04;;;;;;;1.15;0.77;;;18.70;53.60;;;;;;6275928;28;20036;-71
2023/03/14 13:42:05;;;;;;;2.30;0.93;;;18.60;53.50;;;;;;6293656;28;20082;-71
2023/03/14 13:45:09;;;;;;;0.90;0.70;;;18.60;53.50;;;;;;6283998;28;20732;-72
2023/03/14 13:48:12;;;;;;;1.02;0.70;;;18.60;53.50;;;;;;6300514;28;20020;-72
2023/03/14 13:51:16;;;;;;;0.98;0.63;;;18.60;53.50;;;;;;6300683;28;20024;-72
2023/03/14 13:54:20;;;;;;;1.00;0.60;;;18.60;53.50;;;;;;6300911;28;20020;-72
2023/03/14 13:57:21;;;;;;;1.02;0.70;;;18.60;53.50;;;;;;6318227;28;20028;-72
2023/03/14 14:00:26;;;;;;;1.00;0.77;;;18.60;53.60;;;;;;6280175;28;20107;-72
2023/03/14 14:03:30;;;;;;;3.97;0.70;;;18.60;53.50;;;;;;6275193;28;20037;-72
2023/03/14 14:06:36;;;;;;;0.90;0.65;;;18.60;53.50;;;;;;6299007;28;20048;-73
2023/03/14 14:09:43;;;;;;;0.32;0.32;;;18.60;53.60;;;;;;6300699;28;20052;-72
2023/03/14 14:13:01;;;;;;;0.60;0.50;;;18.70;53.60;;;;;;6318280;28;20024;-72
2023/03/14 14:16:03;;;;;;;1.00;0.63;;;18.60;53.50;;;;;;6297993;28;20067;-72
2023/03/14 14:19:04;;;;;;;1.27;0.65;;;18.60;53.60;;;;;;6300275;28;20303;-71
2023/03/14 14:22:06;;;;;;;1.60;0.80;;;18.60;53.60;;;;;;6297548;28;20560;-71
2023/03/14 14:25:12;;;;;;;0.50;0.50;;;18.60;53.60;;;;;;6296520;28;20067;-72
2023/03/14 14:28:33;;;;;;;1.40;0.57;;;18.60;53.60;;;;;;6293479;28;20045;-72
2023/03/14 14:31:34;;;;;;;1.73;0.70;;;18.60;53.60;;;;;;6305377;28;20035;-72
2023/03/14 14:34:41;;;;;;;0.50;0.50;;;18.60;53.60;;;;;;6286978;28;20016;-72
2023/03/14 14:37:44;;;;;;;0.80;0.60;;;18.70;53.60;;;;;;6286546;28;20077;-72
2023/03/14 14:40:46;;;;;;;1.23;0.70;;;18.60;53.60;;;;;;6284161;28;20111;-73
2023/03/14 14:43:47;;;;;;;0.52;0.40;;;18.70;53.70;;;;;;6295947;28;20031;-72
2023/03/14 14:46:48;;;;;;;1.52;0.60;;;18.60;53.60;;;;;;6304368;28;20028;-73
2023/03/14 14:49:56;;;;;;;0.60;0.60;;;18.70;53.70;;;;;;6323027;28;20016;-73
2023/03/14 14:53:25;;;;;;;1.08;0.60;;;18.60;53.60;;;;;;6303981;28;20074;-72
2023/03/14 15:04:30;;;;;;;0.52;0.40;;;18.60;53.60;;;;;;6208259;28;20499;-70
2023/03/14 15:07:33;;;;;;;0.40;0.40;;;18.70;53.70;;;;;;6321387;28;20474;-70
2023/03/14 15:10:38;;;;;;;0.75;0.60;;;18.60;53.60;;;;;;6280696;28;20025;-70
2023/03/14 15:13:45;;;;;;;0.70;0.45;;;18.60;53.60;;;;;;6298709;28;20020;-70
2023/03/14 15:16:48;;;;;;;1.05;0.65;;;18.60;53.60;;;;;;6279929;28;20016;-70
2023/03/14 15:19:57;;;;;;;0.93;0.60;;;18.70;53.70;;;;;;6280389;28;20071;-70
2023/03/14 15:23:13;;;;;;;0.95;0.50;;;18.60;53.60;;;;;;6280400;28;20025;-70
2023/03/14 15:26:22;;;;;;;;;;;18.60;53.60;;;;;;6280394;28;20028;-69
2023/03/14 15:29:30;;;;;;;1.67;0.45;;;18.70;53.80;;;;;;6298604;28;19939;-69
2023/03/14 15:32:35;;;;;;;0.60;0.40;;;18.70;53.80;;;;;;6296674;28;20083;-69
2023/03/14 15:35:40;;;;;;;;;;;18.60;53.70;;;;;;6279514;28;20032;-70
2023/03/14 15:57:13;;;;;;;0.50;0.40;;;18.60;53.70;;;;;;6294908;28;20536;-70
2023/03/14 16:00:24;;;;;;;0.55;0.40;;;18.70;53.90;;;;;;6297562;28;20039;-70
2023/03/14 16:03:24;;;;;;;1.00;0.40;;;18.60;53.80;;;;;;6298017;28;20032;-70
2023/03/14 16:06:25;;;;;;;0.40;0.40;;;18.70;53.90;;;;;;6296843;28;20062;-70
2023/03/14 16:09:26;;;;;;;0.50;0.40;;;18.70;53.70;;;;;;6297551;28;20099;-70
2023/03/14 16:12:28;;;;;;;0.60;0.40;;;18.70;53.70;;;;;;6297425;28;20063;-70
2023/03/14 16:15:29;;;;;;;0.70;0.55;;;18.70;53.70;;;;;;6278965;28;20024;-70
2023/03/14 16:18:32;;;;;;;1.73;0.50;;;18.70;53.70;;;;;;6297034;28;20104;-70
2023/03/14 16:21:33;;;;;;;0.40;0.40;;;18.70;54.50;;;;;;6297115;28;20092;-71
2023/03/14 16:24:34;;;;;;;0.52;0.50;;;18.70;53.80;;;;;;6279455;28;20036;-71
2023/03/14 16:27:34;;;;;;;2.05;0.68;;;18.70;53.70;;;;;;6296452;28;20040;-71
2023/03/14 16:30:35;;;;;;;1.95;0.65;;;18.70;53.80;;;;;;6297550;28;20425;-71
2023/03/14 16:33:37;;;;;;;0.68;0.50;;;18.70;53.80;;;;;;6279069;28;20024;-71
2023/03/14 16:36:37;;;;;;;0.52;0.40;;;18.70;53.80;;;;;;6278661;28;20020;-70
2023/03/14 16:39:38;;;;;;;0.88;0.38;;;18.70;53.80;;;;;;6278794;28;20066;-71
2023/03/14 16:42:39;;;;;;;0.75;0.50;;;18.70;53.80;;;;;;6296136;28;20044;-72
2023/03/14 16:45:39;;;;;;;0.60;0.40;;;18.70;53.80;;;;;;6287450;28;20372;-71
2023/03/14 16:48:40;;;;;;;0.60;0.40;;;18.70;53.80;;;;;;6321324;28;20092;-71
2023/03/14 16:51:42;;;;;;;1.08;0.57;;;18.70;53.80;;;;;;6321317;28;20031;-70